createdAt,value
2022-10-19T00:01:05.734Z,84.40
2022-10-19T00:03:34.380Z,84.78
2022-10-19T00:06:13.549Z,84.50
2022-10-19T00:08:40.361Z,82.97
2022-10-19T00:11:07.470Z,81.73
2022-10-19T00:13:35.172Z,80.10
2022-10-19T00:16:09.221Z,80.50
2022-10-19T00:18:39.197Z,82.78
2022-10-19T00:21:07.528Z,81.86
2022-10-19T00:23:35.010Z,85.26
2022-10-19T00:26:02.067Z,87.03
2022-10-19T00:28:29.355Z,86.29
2022-10-19T00:30:56.555Z,85.84
2022-10-19T00:33:23.630Z,87.22
2022-10-19T00:35:52.197Z,87.72
2022-10-19T00:38:20.764Z,85.88
2022-10-19T00:40:48.940Z,83.98
2022-10-19T00:43:22.493Z,84.97
2022-10-19T00:45:50.434Z,85.53
2022-10-19T00:48:25.228Z,85.79
2022-10-19T00:50:55.542Z,85.55
2022-10-19T00:53:25.986Z,86.00
2022-10-19T00:55:53.646Z,87.35
2022-10-19T00:58:20.588Z,87.52
2022-10-19T01:00:47.481Z,89.00
2022-10-19T01:03:14.310Z,88.92
2022-10-19T01:05:41.058Z,87.68
2022-10-19T01:08:09.248Z,88.48
2022-10-19T01:11:13.736Z,89.37
2022-10-19T01:14:03.489Z,89.55
2022-10-19T01:16:49.722Z,90.37
2022-10-19T01:19:35.101Z,89.52
2022-10-19T01:22:26.543Z,89.28
2022-10-19T01:24:58.927Z,88.89
2022-10-19T01:27:47.425Z,88.12
2022-10-19T01:30:26.463Z,85.05
2022-10-19T01:33:07.558Z,84.13
2022-10-19T01:36:09.784Z,84.03
2022-10-19T01:38:55.869Z,84.58
2022-10-19T01:41:45.435Z,85.34
2022-10-19T01:44:15.017Z,85.79
2022-10-19T01:46:47.518Z,85.97
2022-10-19T01:49:28.793Z,86.57
2022-10-19T01:52:03.019Z,85.97
2022-10-19T01:54:37.412Z,84.94
2022-10-19T01:57:08.066Z,85.89
2022-10-19T01:59:36.911Z,85.97
2022-10-19T02:02:08.426Z,85.14
2022-10-19T02:04:36.256Z,84.71
2022-10-19T02:07:05.371Z,84.90
2022-10-19T02:09:32.630Z,84.93
2022-10-19T02:12:03.317Z,85.51
2022-10-19T02:14:36.827Z,85.33
2022-10-19T02:17:17.611Z,84.58
2022-10-19T02:19:44.604Z,83.89
2022-10-19T02:22:12.613Z,83.85
2022-10-19T02:24:39.429Z,83.47
2022-10-19T02:27:07.807Z,84.26
2022-10-19T02:29:37.325Z,85.26
2022-10-19T02:32:04.851Z,85.42
2022-10-19T02:34:32.577Z,84.95
2022-10-19T02:36:59.518Z,85.12
2022-10-19T02:39:26.342Z,84.79
2022-10-19T02:42:05.275Z,84.56
2022-10-19T02:44:40.307Z,83.83
2022-10-19T02:47:19.700Z,84.21
2022-10-19T02:49:48.342Z,84.49
2022-10-19T02:52:14.994Z,84.16
2022-10-19T02:54:44.030Z,84.25
2022-10-19T02:57:19.828Z,83.94
2022-10-19T02:59:46.713Z,84.36
2022-10-19T03:02:15.064Z,84.29
2022-10-19T03:04:43.594Z,84.43
2022-10-19T03:07:12.231Z,81.67
2022-10-19T03:09:38.852Z,80.81
2022-10-19T03:12:05.718Z,82.26
2022-10-19T03:14:32.586Z,82.32
2022-10-19T03:16:59.432Z,82.07
2022-10-19T03:19:26.145Z,82.32
2022-10-19T03:21:52.816Z,82.42
2022-10-19T03:24:19.572Z,82.84
2022-10-19T03:26:46.451Z,83.29
2022-10-19T03:29:13.125Z,83.23
2022-10-19T03:31:40.030Z,83.14
2022-10-19T03:34:06.730Z,82.93
2022-10-19T03:36:36.374Z,82.68
2022-10-19T03:39:11.182Z,82.73
2022-10-19T03:41:39.129Z,82.61
2022-10-19T03:44:07.465Z,82.87
2022-10-19T03:46:35.079Z,82.85
2022-10-19T03:49:02.736Z,82.77
2022-10-19T03:51:30.710Z,82.98
2022-10-19T03:54:00.528Z,82.84
2022-10-19T03:56:29.472Z,82.87
2022-10-19T03:58:58.277Z,83.05
2022-10-19T04:01:30.977Z,83.30
2022-10-19T04:04:03.641Z,83.92
2022-10-19T04:06:36.027Z,83.74
2022-10-19T04:09:04.894Z,83.33
2022-10-19T04:11:33.365Z,84.07
2022-10-19T04:14:00.888Z,83.46
2022-10-19T04:16:29.717Z,83.35
2022-10-19T04:18:57.083Z,83.59
2022-10-19T04:21:25.381Z,83.68
2022-10-19T04:23:57.173Z,85.45
2022-10-19T04:26:23.997Z,84.94
2022-10-19T04:28:50.757Z,84.06
2022-10-19T04:31:17.551Z,85.10
2022-10-19T04:36:17.327Z,84.38
2022-10-19T04:38:44.003Z,84.35
2022-10-19T04:41:15.874Z,83.81
2022-10-19T04:43:44.690Z,83.43
2022-10-19T04:46:14.517Z,83.43
2022-10-19T04:48:42.588Z,83.44
2022-10-19T04:51:10.057Z,83.16
2022-10-19T04:53:40.766Z,83.41
2022-10-19T04:56:13.026Z,83.11
2022-10-19T04:58:39.915Z,82.52
2022-10-19T05:01:12.917Z,81.70
2022-10-19T05:03:40.928Z,82.41
2022-10-19T05:06:12.682Z,82.83
2022-10-19T05:09:40.419Z,82.39
2022-10-19T05:12:48.694Z,81.33
2022-10-19T05:15:46.447Z,78.56
2022-10-19T05:18:24.353Z,76.94
2022-10-19T05:20:52.513Z,75.33
2022-10-19T05:23:27.920Z,75.01
2022-10-19T05:26:11.495Z,73.20
2022-10-19T05:29:10.895Z,72.60
2022-10-19T05:31:40.851Z,71.09
2022-10-19T05:34:13.977Z,69.47
2022-10-19T05:36:42.145Z,67.66
2022-10-19T05:39:21.048Z,65.87
2022-10-19T08:36:43.266Z,38.70
2022-10-19T08:39:23.268Z,38.50
2022-10-19T08:42:38.624Z,38.02
2022-10-19T09:00:21.480Z,37.26
2022-10-19T09:03:54.938Z,38.06
2022-10-19T09:07:00.016Z,38.37
2022-10-19T09:09:59.266Z,38.91
2022-10-19T09:13:12.586Z,38.62
2022-10-19T09:16:12.304Z,38.35
2022-10-19T09:19:02.357Z,38.77
2022-10-19T09:22:14.554Z,39.23
2022-10-19T09:24:56.227Z,39.45
2022-10-19T09:27:31.518Z,39.81
2022-10-19T09:30:28.084Z,39.30
2022-10-19T09:33:05.729Z,39.80
2022-10-19T09:35:38.771Z,40.14
2022-10-19T09:38:08.655Z,40.29
2022-10-19T09:40:50.807Z,40.26
2022-10-19T09:43:23.304Z,39.22
2022-10-19T09:46:18.558Z,40.02
2022-10-19T09:48:58.781Z,39.89
2022-10-19T09:51:26.632Z,39.90
2022-10-19T09:53:57.171Z,39.99
2022-10-19T09:56:27.114Z,39.45
2022-10-19T09:58:58.709Z,39.23
2022-10-19T10:01:43.849Z,39.36
2022-10-19T10:04:19.955Z,39.17
2022-10-19T10:06:57.685Z,39.64
2022-10-19T10:09:45.175Z,39.64
2022-10-19T10:12:18.333Z,38.99
2022-10-19T10:14:50.870Z,38.65
2022-10-19T10:17:27.793Z,39.37
2022-10-19T10:20:29.315Z,38.81
2022-10-19T10:23:03.717Z,37.94
2022-10-19T10:25:34.078Z,38.54
2022-10-19T10:28:16.542Z,38.86
2022-10-19T10:30:47.194Z,40.01
2022-10-19T10:33:40.403Z,39.62
2022-10-19T10:36:12.678Z,39.33
2022-10-19T10:38:51.111Z,39.84
2022-10-19T10:41:23.719Z,39.62
2022-10-19T10:44:06.444Z,40.47
2022-10-19T10:46:58.102Z,40.37
2022-10-19T10:49:34.350Z,40.73
2022-10-19T10:52:10.134Z,41.02
2022-10-19T10:54:38.249Z,40.75
2022-10-19T10:57:16.234Z,41.34
2022-10-19T11:00:01.947Z,40.68
2022-10-19T11:03:03.098Z,41.15
2022-10-19T11:05:36.047Z,41.08
2022-10-19T11:08:18.986Z,41.32
2022-10-19T11:11:19.415Z,41.76
2022-10-19T11:13:58.524Z,42.27
2022-10-19T11:16:32.295Z,41.83
2022-10-19T11:19:25.248Z,41.32
2022-10-19T11:22:22.441Z,40.75
2022-10-19T11:25:20.300Z,40.79
2022-10-19T11:27:50.806Z,41.82
2022-10-19T11:30:42.814Z,41.71
2022-10-19T11:33:38.492Z,41.15
2022-10-19T11:36:46.429Z,41.32
2022-10-19T11:39:48.359Z,41.30
2022-10-19T11:42:35.069Z,41.64
2022-10-19T11:45:14.790Z,42.66
2022-10-19T11:48:01.933Z,42.84
2022-10-19T11:51:16.805Z,43.28
2022-10-19T11:54:14.632Z,43.63
2022-10-19T11:57:04.772Z,43.78
2022-10-19T11:59:39.322Z,43.50
2022-10-19T12:02:11.678Z,43.53
2022-10-19T12:05:17.000Z,43.66
2022-10-19T12:08:14.075Z,44.04
2022-10-19T12:10:55.207Z,43.78
2022-10-19T12:13:29.629Z,43.82
2022-10-19T12:15:59.139Z,43.78
2022-10-19T12:18:42.569Z,43.60
2022-10-19T12:21:29.389Z,43.86
2022-10-19T12:24:03.540Z,43.79
2022-10-19T12:26:35.403Z,44.66
2022-10-19T12:29:12.526Z,44.73
2022-10-19T12:31:39.831Z,45.59
2022-10-19T12:34:59.744Z,46.82
2022-10-19T12:37:40.487Z,47.63
2022-10-19T12:40:23.747Z,47.60
2022-10-19T12:43:03.133Z,48.14
2022-10-19T12:45:36.438Z,48.99
2022-10-19T12:48:13.592Z,49.23
2022-10-19T12:50:49.578Z,49.60
2022-10-19T12:53:23.610Z,50.27
2022-10-19T12:56:09.048Z,51.08
2022-10-19T12:58:46.597Z,50.84
2022-10-19T13:01:26.490Z,50.58
2022-10-19T13:04:15.897Z,50.73
2022-10-19T13:06:46.207Z,51.15
2022-10-19T13:09:36.613Z,51.67
2022-10-19T13:12:19.565Z,51.76
2022-10-19T13:15:00.496Z,52.07
2022-10-19T13:17:51.682Z,52.75
2022-10-19T13:20:18.462Z,53.01
2022-10-19T13:23:08.000Z,53.44
2022-10-19T13:25:36.593Z,53.65
2022-10-19T13:28:06.029Z,54.52
2022-10-19T13:30:38.811Z,54.79
2022-10-19T13:33:24.284Z,55.58
2022-10-19T13:36:01.679Z,56.96
2022-10-19T13:38:40.544Z,58.90
2022-10-19T13:41:24.930Z,60.03
2022-10-19T13:43:56.407Z,60.63
2022-10-19T13:46:26.230Z,61.31
2022-10-19T13:49:08.482Z,62.57
2022-10-19T13:51:37.619Z,62.62
2022-10-19T13:54:25.126Z,63.96
2022-10-19T13:56:54.842Z,63.46
2022-10-19T13:59:30.569Z,64.38
2022-10-19T14:02:32.386Z,64.56
2022-10-19T14:05:24.379Z,65.10
2022-10-19T14:08:18.574Z,65.23
2022-10-19T14:11:01.156Z,65.15
2022-10-19T14:13:29.232Z,65.20
2022-10-19T14:15:59.985Z,65.02
2022-10-19T14:18:37.807Z,65.26
2022-10-19T14:21:08.250Z,65.37
2022-10-19T14:23:39.519Z,65.12
2022-10-19T14:26:21.293Z,64.89
2022-10-19T14:28:54.641Z,64.74
2022-10-19T14:31:25.455Z,64.90
2022-10-19T14:34:00.876Z,64.69
2022-10-19T14:36:33.918Z,64.26
2022-10-19T14:39:01.504Z,64.48
2022-10-19T14:41:30.611Z,64.15
2022-10-19T14:43:58.922Z,63.69
2022-10-19T14:46:29.938Z,63.88
2022-10-19T14:49:07.025Z,63.84
2022-10-19T14:51:41.783Z,63.86
2022-10-19T14:54:24.659Z,63.55
2022-10-19T14:57:03.410Z,63.39
2022-10-19T14:59:45.828Z,63.03
2022-10-19T15:02:37.285Z,63.17
2022-10-19T15:05:06.064Z,63.61
2022-10-19T15:07:38.399Z,63.70
2022-10-19T15:10:16.343Z,64.09
2022-10-19T15:12:44.140Z,64.46
2022-10-19T15:15:17.383Z,64.70
2022-10-19T15:18:06.767Z,64.95
2022-10-19T15:20:49.433Z,64.81
2022-10-19T15:23:39.383Z,65.03
2022-10-19T15:26:17.204Z,65.75
2022-10-19T15:28:45.582Z,65.85
2022-10-19T15:31:26.165Z,66.09
2022-10-19T15:34:03.151Z,66.35
2022-10-19T15:36:32.266Z,66.29
2022-10-19T15:39:24.606Z,66.98
2022-10-19T15:41:52.656Z,66.80
2022-10-19T15:44:48.642Z,67.28
2022-10-19T15:47:15.586Z,68.04
2022-10-19T15:49:42.284Z,68.38
2022-10-19T15:52:16.675Z,68.83
2022-10-19T15:54:46.391Z,69.20
2022-10-19T15:57:25.467Z,69.70
2022-10-19T15:59:53.939Z,69.88
2022-10-19T16:02:20.810Z,70.01
2022-10-19T16:04:47.663Z,70.31
2022-10-19T16:07:19.190Z,70.41
2022-10-19T16:09:45.951Z,70.24
2022-10-19T16:12:12.791Z,69.99
2022-10-19T16:14:39.451Z,69.76
2022-10-19T16:17:06.232Z,69.71
2022-10-19T16:19:32.996Z,69.68
2022-10-19T16:21:59.967Z,69.60
2022-10-19T16:24:26.669Z,69.57
2022-10-19T16:26:53.391Z,69.70
2022-10-19T16:29:20.045Z,69.84
2022-10-19T16:31:46.850Z,69.90
2022-10-19T16:34:13.551Z,69.96
2022-10-19T16:36:40.358Z,70.38
2022-10-19T16:39:07.138Z,70.45
2022-10-19T16:41:34.054Z,70.64
2022-10-19T16:44:00.838Z,70.50
2022-10-19T16:46:27.699Z,70.42
2022-10-19T16:48:54.594Z,70.36
2022-10-19T16:51:34.962Z,70.01
2022-10-19T16:54:04.086Z,70.00
2022-10-19T16:56:31.628Z,70.15
2022-10-19T16:59:04.524Z,70.24
2022-10-19T17:01:33.017Z,70.39
2022-10-19T17:04:00.306Z,70.73
2022-10-19T17:06:27.886Z,71.01
2022-10-19T17:11:43.881Z,71.48
2022-10-19T17:14:12.242Z,71.45
2022-10-19T17:16:39.689Z,71.24
2022-10-19T17:19:08.438Z,71.23
2022-10-19T17:21:38.113Z,71.38
2022-10-19T17:24:07.182Z,71.27
2022-10-19T17:26:35.267Z,71.24
2022-10-19T17:29:02.358Z,71.67
2022-10-19T17:31:30.082Z,71.40
2022-10-19T17:33:56.847Z,71.44
2022-10-19T17:36:27.563Z,71.24
2022-10-19T17:38:56.230Z,71.52
2022-10-19T17:41:23.451Z,71.67
2022-10-19T17:43:51.308Z,71.68
2022-10-19T17:46:24.091Z,72.24
2022-10-19T17:48:51.488Z,72.18
2022-10-19T17:51:20.887Z,72.44
2022-10-19T17:53:48.137Z,72.41
2022-10-19T17:56:18.126Z,71.89
2022-10-19T17:58:45.300Z,71.96
2022-10-19T18:01:15.423Z,71.91
2022-10-19T18:03:42.338Z,71.82
2022-10-19T18:06:17.630Z,71.69
2022-10-19T18:08:47.182Z,71.05
2022-10-19T18:11:16.925Z,70.49
2022-10-19T18:13:43.928Z,70.61
2022-10-19T18:16:14.568Z,69.67
2022-10-19T18:18:45.209Z,69.44
2022-10-19T18:21:13.865Z,69.40
2022-10-19T18:23:41.220Z,69.36
2022-10-19T18:26:10.944Z,69.27
2022-10-19T18:28:37.970Z,69.32
2022-10-19T18:31:09.369Z,68.89
2022-10-19T18:33:37.563Z,68.81
2022-10-19T18:36:08.815Z,68.77
2022-10-19T18:38:36.240Z,68.15
2022-10-19T18:41:08.244Z,67.69
2022-10-19T18:43:34.973Z,67.31
2022-10-19T18:46:01.805Z,66.43
2022-10-19T18:48:29.744Z,65.96
2022-10-19T18:50:57.474Z,66.02
2022-10-19T18:53:24.773Z,66.06
2022-10-19T18:56:05.925Z,65.59
2022-10-19T18:58:33.757Z,65.26
2022-10-19T19:01:30.940Z,65.30
2022-10-19T19:04:06.032Z,64.95
2022-10-19T19:06:35.519Z,64.92
2022-10-19T19:09:05.999Z,64.12
2022-10-19T19:11:36.857Z,64.09
2022-10-19T19:14:11.994Z,64.00
2022-10-19T19:16:40.405Z,63.74
2022-10-19T19:19:08.297Z,63.31
2022-10-19T19:21:35.998Z,62.92
2022-10-19T19:24:05.481Z,62.47
2022-10-19T19:26:36.521Z,61.90
2022-10-19T19:29:04.035Z,62.13
2022-10-19T19:31:31.101Z,62.21
2022-10-19T19:34:05.273Z,62.31
2022-10-19T19:36:32.010Z,62.28
2022-10-19T19:38:59.116Z,62.44
2022-10-19T19:41:27.131Z,62.56
2022-10-19T19:43:57.017Z,62.40
2022-10-19T19:46:23.924Z,62.54
2022-10-19T19:48:50.608Z,62.54
2022-10-19T19:51:19.387Z,61.94
2022-10-19T19:53:47.820Z,61.71
2022-10-19T19:56:16.434Z,61.84
2022-10-19T19:58:44.868Z,61.88
2022-10-19T20:01:14.689Z,61.59
2022-10-19T20:03:42.078Z,61.46
2022-10-19T20:06:09.766Z,61.59
2022-10-19T20:08:37.813Z,61.40
2022-10-19T20:11:10.925Z,61.31
2022-10-19T20:13:38.846Z,60.96
2022-10-19T20:16:11.944Z,60.76
2022-10-19T20:18:40.255Z,60.24
2022-10-19T20:21:07.023Z,60.04
2022-10-19T20:23:34.316Z,59.85
2022-10-19T20:26:01.610Z,59.91
2022-10-19T20:28:31.218Z,59.41
2022-10-19T20:31:06.430Z,59.40
2022-10-19T20:33:35.792Z,58.88
2022-10-19T20:36:23.908Z,59.07
2022-10-19T20:38:55.863Z,59.23
2022-10-19T20:41:24.903Z,59.59
2022-10-19T20:43:53.338Z,58.91
2022-10-19T20:46:26.380Z,59.00
2022-10-19T20:48:55.764Z,58.99
2022-10-19T20:51:28.998Z,58.87
2022-10-19T20:54:01.136Z,58.92
2022-10-19T20:56:31.102Z,59.18
2022-10-19T20:59:00.705Z,59.29
2022-10-19T21:01:29.894Z,59.18
2022-10-19T21:04:00.359Z,59.35
2022-10-19T21:06:29.224Z,59.50
2022-10-19T21:08:56.949Z,59.79
2022-10-19T21:11:32.495Z,59.80
2022-10-19T21:14:01.729Z,59.89
2022-10-19T21:16:29.690Z,60.30
2022-10-19T21:18:57.555Z,60.40
2022-10-19T21:21:27.366Z,60.47
2022-10-19T21:23:57.066Z,60.21
2022-10-19T21:26:28.422Z,60.47
2022-10-19T21:28:55.607Z,60.13
2022-10-19T21:31:23.910Z,60.08
2022-10-19T21:33:51.452Z,60.03
2022-10-19T21:36:20.299Z,60.14
2022-10-19T21:38:47.547Z,60.29
2022-10-19T21:41:18.053Z,60.45
2022-10-19T21:43:46.498Z,60.78
2022-10-19T21:46:16.099Z,61.03
2022-10-19T21:48:43.324Z,61.30
2022-10-19T21:51:15.960Z,61.27
2022-10-19T21:53:43.405Z,61.41
2022-10-19T21:56:10.158Z,61.31
2022-10-19T21:58:36.848Z,61.34
2022-10-19T22:01:05.107Z,61.71
2022-10-19T22:03:31.840Z,61.63
2022-10-19T22:05:59.035Z,62.05
2022-10-19T22:08:26.389Z,62.66
2022-10-19T22:10:53.136Z,62.73
2022-10-19T22:13:19.867Z,63.27
2022-10-19T22:15:46.550Z,63.35
2022-10-19T22:18:13.229Z,63.41
2022-10-19T22:20:40.060Z,63.26
2022-10-19T22:23:07.691Z,63.39
2022-10-19T22:25:34.995Z,63.70
2022-10-19T22:28:01.923Z,63.94
2022-10-19T22:30:28.955Z,64.39
2022-10-19T22:32:55.547Z,64.41
2022-10-19T22:35:22.135Z,64.46
2022-10-19T22:37:48.712Z,64.57
2022-10-19T22:40:15.276Z,64.95
2022-10-19T22:42:41.890Z,64.88
2022-10-19T22:45:08.636Z,65.25
2022-10-19T22:47:35.206Z,65.45
2022-10-19T22:50:01.925Z,65.56
2022-10-19T22:52:28.916Z,65.78
2022-10-19T22:54:55.814Z,65.82
2022-10-19T22:57:22.550Z,65.88
2022-10-19T22:59:49.681Z,66.37
2022-10-19T23:02:16.437Z,65.93
2022-10-19T23:04:43.135Z,66.19
2022-10-19T23:09:41.086Z,66.51
2022-10-19T23:12:07.646Z,66.82
2022-10-19T23:14:34.294Z,67.12
2022-10-19T23:17:00.841Z,67.17
2022-10-19T23:19:27.354Z,67.21
2022-10-19T23:21:54.051Z,67.10
2022-10-19T23:24:20.887Z,67.27
2022-10-19T23:26:47.506Z,67.45
2022-10-19T23:29:14.581Z,67.50
2022-10-19T23:31:41.167Z,67.83
2022-10-19T23:34:07.804Z,67.53
2022-10-19T23:36:34.400Z,67.84
2022-10-19T23:39:00.975Z,67.84
2022-10-19T23:41:27.601Z,67.91
2022-10-19T23:43:54.379Z,67.96
2022-10-19T23:46:21.006Z,68.38
2022-10-19T23:48:47.682Z,68.61
2022-10-19T23:51:17.484Z,68.64
2022-10-19T23:53:47.391Z,68.87
2022-10-19T23:56:19.460Z,68.78
2022-10-19T23:58:46.417Z,68.90
